createdAt,value
2019-03-27T00:02:21.134Z,95677.30
2019-03-27T00:04:49.807Z,95681.78
2019-03-27T00:07:18.415Z,95686.31
2019-03-27T00:09:49.715Z,95695.53
2019-03-27T00:12:18.355Z,95685.53
2019-03-27T00:14:46.951Z,95690.59
2019-03-27T00:17:15.642Z,95688.19
2019-03-27T00:19:44.206Z,95697.44
2019-03-27T00:22:12.753Z,95697.00
2019-03-27T00:24:41.337Z,95699.10
2019-03-27T00:27:09.878Z,95712.39
2019-03-27T00:29:38.504Z,95699.75
2019-03-27T00:32:07.135Z,95709.47
2019-03-27T00:34:35.672Z,95700.10
2019-03-27T00:37:04.220Z,95719.36
2019-03-27T00:39:32.749Z,95723.02
2019-03-27T00:42:01.455Z,95741.72
2019-03-27T00:44:31.061Z,95734.45
2019-03-27T00:47:02.719Z,95736.56
2019-03-27T00:49:33.018Z,95731.03
2019-03-27T00:52:01.622Z,95734.30
2019-03-27T00:54:30.150Z,95740.53
2019-03-27T00:56:58.721Z,95751.42
2019-03-27T00:59:27.251Z,95760.58
2019-03-27T01:01:55.846Z,95762.74
2019-03-27T01:04:24.451Z,95771.89
2019-03-27T01:06:53.086Z,95763.44
2019-03-27T01:09:21.826Z,95766.23
2019-03-27T01:11:50.400Z,95764.98
2019-03-27T01:14:19.031Z,95765.11
2019-03-27T01:16:47.654Z,95759.31
2019-03-27T01:19:16.178Z,95772.68
2019-03-27T01:21:44.785Z,95773.16
2019-03-27T01:24:13.468Z,95775.27
2019-03-27T01:26:42.030Z,95774.34
2019-03-27T01:29:10.493Z,95770.07
2019-03-27T01:31:41.322Z,95778.31
2019-03-27T01:34:09.860Z,95782.56
2019-03-27T01:36:38.509Z,95779.77
2019-03-27T01:39:07.700Z,95784.70
2019-03-27T01:41:36.340Z,95777.44
2019-03-27T01:44:04.970Z,95786.14
2019-03-27T01:46:33.495Z,95791.29
2019-03-27T01:49:01.991Z,95792.02
2019-03-27T01:51:30.596Z,95786.41
2019-03-27T01:53:59.171Z,95794.64
2019-03-27T01:56:27.875Z,95799.27
2019-03-27T01:58:56.512Z,95801.41
2019-03-27T02:01:25.043Z,95802.09
2019-03-27T02:03:53.584Z,95810.38
2019-03-27T02:06:22.041Z,95818.64
2019-03-27T02:08:50.511Z,95818.95
2019-03-27T02:11:19.113Z,95825.23
2019-03-27T02:13:49.179Z,95828.90
2019-03-27T02:16:17.707Z,95836.81
2019-03-27T02:18:46.333Z,95837.63
2019-03-27T02:21:16.030Z,95842.99
2019-03-27T02:23:44.563Z,95840.71
2019-03-27T02:26:13.218Z,95842.82
2019-03-27T02:28:41.896Z,95844.75
2019-03-27T02:31:14.880Z,95839.39
2019-03-27T02:33:40.679Z,95851.03
2019-03-27T02:36:09.296Z,95855.20
2019-03-27T02:38:37.902Z,95860.16
2019-03-27T02:41:06.438Z,95860.91
2019-03-27T02:43:34.972Z,95864.27
2019-03-27T02:46:03.897Z,95864.23
2019-03-27T02:48:32.459Z,95866.16
2019-03-27T02:51:00.963Z,95872.85
2019-03-27T02:53:31.523Z,95877.06
2019-03-27T02:55:59.887Z,95881.23
2019-03-27T02:58:28.422Z,95880.77
2019-03-27T03:00:56.954Z,95879.39
2019-03-27T03:03:25.566Z,95886.02
2019-03-27T03:05:54.123Z,95885.56
2019-03-27T03:08:22.794Z,95889.67
2019-03-27T03:10:51.317Z,95896.28
2019-03-27T03:13:19.849Z,95899.13
2019-03-27T03:15:48.454Z,95899.36
2019-03-27T03:18:16.990Z,95900.80
2019-03-27T03:20:45.604Z,95898.36
2019-03-27T03:23:14.066Z,95907.08
2019-03-27T03:25:42.711Z,95909.48
2019-03-27T03:28:11.248Z,95916.42
2019-03-27T03:30:39.935Z,95913.69
2019-03-27T03:33:08.539Z,95924.43
2019-03-27T03:35:37.105Z,95927.63
2019-03-27T03:38:05.709Z,95927.45
2019-03-27T03:40:34.276Z,95930.28
2019-03-27T03:43:02.907Z,95929.58
2019-03-27T03:45:31.471Z,95931.16
2019-03-27T03:48:00.044Z,95939.75
2019-03-27T03:50:39.905Z,95944.69
2019-03-27T03:53:16.229Z,95946.60
2019-03-27T03:55:44.949Z,95952.28
2019-03-27T03:58:15.048Z,95951.23
2019-03-27T04:00:44.073Z,95952.56
2019-03-27T04:03:12.706Z,95954.41
2019-03-27T04:05:41.352Z,95955.79
2019-03-27T04:08:09.972Z,95956.56
2019-03-27T04:10:38.610Z,95955.27
2019-03-27T04:13:07.404Z,95961.41
2019-03-27T04:15:36.031Z,95968.80
2019-03-27T04:18:04.604Z,95971.03
2019-03-27T04:20:33.271Z,95984.11
2019-03-27T04:23:01.875Z,95985.55
2019-03-27T04:25:53.859Z,95986.16
2019-03-27T04:28:00.946Z,95987.60
2019-03-27T04:30:30.754Z,95984.31
2019-03-27T04:33:01.385Z,95986.50
2019-03-27T04:35:31.583Z,95986.69
2019-03-27T04:38:00.034Z,95990.69
2019-03-27T04:40:28.624Z,95989.51
2019-03-27T04:42:59.284Z,95998.94
2019-03-27T04:45:27.958Z,95998.23
2019-03-27T04:47:56.596Z,96000.97
2019-03-27T04:50:30.106Z,96011.36
2019-03-27T04:52:55.503Z,96009.41
2019-03-27T04:55:23.971Z,96012.47
2019-03-27T04:57:52.502Z,96018.80
2019-03-27T05:00:21.258Z,96019.20
2019-03-27T05:02:49.719Z,96025.55
2019-03-27T05:05:18.327Z,96021.16
2019-03-27T05:07:46.860Z,96030.95
2019-03-27T05:10:15.506Z,96029.41
2019-03-27T05:12:44.041Z,96034.50
2019-03-27T05:15:12.769Z,96040.53
2019-03-27T05:17:46.147Z,96040.72
2019-03-27T05:20:11.773Z,96049.22
2019-03-27T05:22:40.976Z,96045.92
2019-03-27T05:25:09.553Z,96044.78
2019-03-27T05:27:38.033Z,96050.06
2019-03-27T05:30:08.660Z,96055.39
2019-03-27T05:32:37.303Z,96062.19
2019-03-27T05:35:07.314Z,96060.34
2019-03-27T05:37:35.924Z,96057.67
2019-03-27T05:40:06.766Z,96065.14
2019-03-27T05:42:35.318Z,96062.29
2019-03-27T05:45:04.722Z,96070.35
2019-03-27T05:47:33.404Z,96074.46
2019-03-27T05:50:02.045Z,96075.13
2019-03-27T05:52:30.565Z,96077.38
2019-03-27T05:54:59.557Z,96082.26
2019-03-27T05:57:28.168Z,96085.33
2019-03-27T05:59:56.715Z,96084.16
2019-03-27T06:02:25.414Z,96078.41
2019-03-27T06:04:53.938Z,96082.81
2019-03-27T06:07:24.510Z,96082.24
2019-03-27T06:09:52.997Z,96091.13
2019-03-27T06:12:21.633Z,96095.98
2019-03-27T06:14:54.575Z,96096.62
2019-03-27T06:17:23.183Z,96100.41
2019-03-27T06:19:51.732Z,96104.94
2019-03-27T06:22:20.447Z,96108.30
2019-03-27T06:24:49.091Z,96117.98
2019-03-27T06:27:17.641Z,96119.27
2019-03-27T06:29:46.133Z,96126.34
2019-03-27T06:32:14.776Z,96127.58
2019-03-27T06:34:43.459Z,96135.04
2019-03-27T06:37:12.078Z,96132.20
2019-03-27T06:39:40.669Z,96137.45
2019-03-27T06:42:09.223Z,96145.98
2019-03-27T06:44:37.828Z,96148.83
2019-03-27T06:47:06.437Z,96154.30
2019-03-27T06:49:35.032Z,96165.75
2019-03-27T06:52:03.651Z,96155.79
2019-03-27T06:54:32.230Z,96168.58
2019-03-27T06:57:01.365Z,96171.39
2019-03-27T06:59:30.027Z,96163.53
2019-03-27T07:01:58.697Z,96167.08
2019-03-27T07:04:27.222Z,96157.84
2019-03-27T07:06:55.845Z,96165.70
2019-03-27T07:09:24.311Z,96170.72
2019-03-27T07:11:52.990Z,96177.41
2019-03-27T07:14:21.958Z,96175.73
2019-03-27T07:16:50.488Z,96179.80
2019-03-27T07:19:19.047Z,96184.71
2019-03-27T07:21:47.645Z,96188.28
2019-03-27T07:24:16.253Z,96190.43
2019-03-27T07:26:44.791Z,96200.41
2019-03-27T07:29:13.385Z,96192.44
2019-03-27T07:31:41.994Z,96191.30
2019-03-27T07:34:10.601Z,96193.73
2019-03-27T07:36:39.139Z,96193.97
2019-03-27T07:39:11.219Z,96192.51
2019-03-27T07:41:38.034Z,96190.69
2019-03-27T07:44:06.739Z,96189.72
2019-03-27T07:46:35.365Z,96205.74
2019-03-27T07:49:03.998Z,96207.34
2019-03-27T07:51:32.592Z,96209.11
2019-03-27T07:54:01.218Z,96208.06
2019-03-27T07:56:29.753Z,96201.05
2019-03-27T07:58:59.861Z,96202.98
2019-03-27T08:01:28.776Z,96206.77
2019-03-27T08:03:57.374Z,96202.34
2019-03-27T08:06:28.268Z,96201.05
2019-03-27T08:08:56.795Z,96214.39
2019-03-27T08:11:25.543Z,96212.34
2019-03-27T08:13:54.505Z,96215.15
2019-03-27T08:16:23.042Z,96212.23
2019-03-27T08:18:51.639Z,96213.47
2019-03-27T08:21:20.159Z,96215.31
2019-03-27T08:23:48.700Z,96220.67
2019-03-27T08:26:17.233Z,96218.97
2019-03-27T08:28:45.835Z,96218.63
2019-03-27T08:31:19.547Z,96234.16
2019-03-27T08:33:48.073Z,96215.07
2019-03-27T08:36:16.686Z,96223.06
2019-03-27T08:38:45.288Z,96229.04
2019-03-27T08:41:14.157Z,96221.61
2019-03-27T08:43:44.740Z,96234.80
2019-03-27T08:46:12.873Z,96240.98
2019-03-27T08:48:41.412Z,96246.88
2019-03-27T08:51:10.075Z,96237.67
2019-03-27T08:53:38.713Z,96240.03
2019-03-27T08:56:07.320Z,96231.45
2019-03-27T08:58:35.914Z,96230.48
2019-03-27T09:01:05.535Z,96246.74
2019-03-27T09:03:34.180Z,96242.78
2019-03-27T09:06:02.781Z,96247.55
2019-03-27T09:08:31.399Z,96244.50
2019-03-27T09:11:00.010Z,96245.42
2019-03-27T09:13:28.619Z,96248.27
2019-03-27T09:15:57.149Z,96244.98
2019-03-27T09:18:25.689Z,96244.55
2019-03-27T09:20:54.287Z,96248.69
2019-03-27T09:23:22.880Z,96245.78
2019-03-27T09:25:51.414Z,96248.92
2019-03-27T09:28:20.085Z,96247.98
2019-03-27T09:30:51.063Z,96245.70
2019-03-27T09:33:19.702Z,96248.38
2019-03-27T09:35:48.307Z,96239.27
2019-03-27T09:38:16.950Z,96236.05
2019-03-27T09:40:45.534Z,96251.80
2019-03-27T09:43:14.129Z,96254.45
2019-03-27T09:45:42.728Z,96254.35
2019-03-27T09:48:11.358Z,96242.44
2019-03-27T09:50:41.326Z,96245.92
2019-03-27T09:53:11.335Z,96255.77
2019-03-27T09:55:39.933Z,96252.43
2019-03-27T09:58:08.538Z,96265.22
2019-03-27T10:00:49.115Z,96247.42
2019-03-27T10:03:17.860Z,96252.78
2019-03-27T10:05:46.385Z,96249.91
2019-03-27T10:08:14.903Z,96244.52
2019-03-27T10:10:43.517Z,96253.29
2019-03-27T10:13:12.132Z,96258.13
2019-03-27T10:15:40.764Z,96260.56
2019-03-27T10:18:09.440Z,96256.50
2019-03-27T10:20:38.048Z,96253.79
2019-03-27T10:23:07.524Z,96243.58
2019-03-27T10:25:36.047Z,96254.46
2019-03-27T10:28:04.682Z,96257.67
2019-03-27T10:30:33.282Z,96247.75
2019-03-27T10:33:01.881Z,96250.66
2019-03-27T10:35:30.356Z,96256.02
2019-03-27T10:37:58.996Z,96251.52
2019-03-27T10:40:27.535Z,96246.62
2019-03-27T10:42:56.067Z,96244.97
2019-03-27T10:45:24.594Z,96259.88
2019-03-27T10:47:53.116Z,96257.03
2019-03-27T10:50:21.745Z,96250.13
2019-03-27T10:52:50.275Z,96256.41
2019-03-27T10:55:18.841Z,96257.05
2019-03-27T10:57:47.452Z,96254.94
2019-03-27T11:00:16.785Z,96245.73
2019-03-27T11:02:45.316Z,96271.20
2019-03-27T11:05:14.021Z,96254.52
2019-03-27T11:07:42.619Z,96257.02
2019-03-27T11:10:12.422Z,96250.23
2019-03-27T11:12:41.023Z,96245.57
2019-03-27T11:15:10.418Z,96258.56
2019-03-27T11:17:39.026Z,96260.11
2019-03-27T11:20:08.448Z,96248.59
2019-03-27T11:22:37.015Z,96258.75
2019-03-27T11:25:12.368Z,96254.38
2019-03-27T11:27:42.045Z,96253.84
2019-03-27T11:30:11.499Z,96247.36
2019-03-27T11:32:40.074Z,96248.53
2019-03-27T11:35:09.019Z,96245.61
2019-03-27T11:37:37.547Z,96243.37
2019-03-27T11:40:06.655Z,96243.69
2019-03-27T11:42:35.184Z,96250.66
2019-03-27T11:45:05.748Z,96248.34
2019-03-27T11:47:35.539Z,96246.64
2019-03-27T11:50:07.956Z,96253.08
2019-03-27T11:52:36.581Z,96239.79
2019-03-27T11:55:06.161Z,96232.48
2019-03-27T11:57:34.760Z,96237.64
2019-03-27T12:00:04.469Z,96237.01
2019-03-27T12:02:33.078Z,96226.91
2019-03-27T12:05:03.882Z,96222.31
2019-03-27T12:07:32.370Z,96225.45
2019-03-27T12:10:00.892Z,96231.42
2019-03-27T12:12:29.379Z,96215.63
2019-03-27T12:14:57.910Z,96219.13
2019-03-27T12:17:28.141Z,96210.54
2019-03-27T12:19:56.667Z,96213.97
2019-03-27T12:22:25.270Z,96220.52
2019-03-27T12:24:53.777Z,96213.36
2019-03-27T12:27:22.246Z,96211.33
2019-03-27T12:29:54.370Z,96231.30
2019-03-27T12:32:25.003Z,96221.67
2019-03-27T12:34:54.646Z,96222.48
2019-03-27T12:37:23.181Z,96222.88
2019-03-27T12:39:51.763Z,96219.84
2019-03-27T12:42:20.293Z,96223.97
2019-03-27T12:44:48.847Z,96224.43
2019-03-27T12:47:17.377Z,96232.59
2019-03-27T12:49:45.942Z,96225.73
2019-03-27T12:52:14.540Z,96222.22
2019-03-27T12:54:44.828Z,96226.34
2019-03-27T12:57:13.380Z,96219.11
2019-03-27T12:59:41.981Z,96228.78
2019-03-27T13:02:10.586Z,96223.47
2019-03-27T13:04:39.238Z,96218.64
2019-03-27T13:07:07.771Z,96221.06
2019-03-27T13:09:36.228Z,96216.36
2019-03-27T13:12:10.030Z,96215.44
2019-03-27T13:14:38.670Z,96214.84
2019-03-27T13:17:07.233Z,96212.64
2019-03-27T13:19:35.828Z,96210.95
2019-03-27T13:22:04.440Z,96206.37
2019-03-27T13:24:33.001Z,96204.69
2019-03-27T13:27:01.615Z,96204.30
2019-03-27T13:29:31.805Z,96197.95
2019-03-27T13:32:07.626Z,96194.98
2019-03-27T13:34:37.617Z,96191.47
2019-03-27T13:37:06.242Z,96202.95
2019-03-27T13:39:34.704Z,96201.29
2019-03-27T13:42:03.235Z,96203.37
2019-03-27T13:44:37.325Z,96197.36
2019-03-27T13:47:02.356Z,96188.89
2019-03-27T13:49:30.975Z,96183.77
2019-03-27T13:51:59.648Z,96179.95
2019-03-27T13:54:28.288Z,96196.09
2019-03-27T13:56:56.816Z,96188.50
2019-03-27T13:59:25.380Z,96181.27
2019-03-27T14:01:53.983Z,96182.92
2019-03-27T14:04:22.792Z,96183.81
2019-03-27T14:06:57.264Z,96188.93
2019-03-27T14:09:25.825Z,96185.55
2019-03-27T14:11:54.365Z,96181.39
2019-03-27T14:14:22.889Z,96186.89
2019-03-27T14:16:51.423Z,96182.36
2019-03-27T14:19:20.036Z,96179.02
2019-03-27T14:21:54.633Z,96181.44
2019-03-27T14:24:18.982Z,96189.56
2019-03-27T14:26:47.627Z,96189.22
2019-03-27T14:29:16.239Z,96194.16
2019-03-27T14:31:44.848Z,96189.15
2019-03-27T14:34:13.454Z,96188.23
2019-03-27T14:36:43.924Z,96186.50
2019-03-27T14:39:12.513Z,96185.98
2019-03-27T14:41:41.120Z,96184.26
2019-03-27T14:44:09.667Z,96186.77
2019-03-27T14:46:42.197Z,96190.95
2019-03-27T14:49:10.660Z,96186.68
2019-03-27T14:51:39.252Z,96182.83
2019-03-27T14:54:07.934Z,96184.48
2019-03-27T14:56:36.400Z,96181.06
2019-03-27T14:59:05.010Z,96186.09
2019-03-27T15:01:35.584Z,96186.89
2019-03-27T15:04:12.120Z,96186.48
2019-03-27T15:06:40.683Z,96185.16
2019-03-27T15:09:10.356Z,96187.23
2019-03-27T15:11:38.870Z,96188.05
2019-03-27T15:14:07.479Z,96184.66
2019-03-27T15:16:36.153Z,96191.34
2019-03-27T15:19:05.031Z,96179.84
2019-03-27T15:21:33.659Z,96185.30
2019-03-27T15:24:02.277Z,96184.02
2019-03-27T15:26:30.865Z,96180.17
2019-03-27T15:28:59.329Z,96182.29
2019-03-27T15:31:27.896Z,96186.90
2019-03-27T15:33:56.588Z,96188.13
2019-03-27T15:36:25.061Z,96186.85
2019-03-27T15:38:53.646Z,96183.85
2019-03-27T15:41:22.283Z,96188.47
2019-03-27T15:43:50.847Z,96181.22
2019-03-27T15:46:19.416Z,96194.68
2019-03-27T15:48:47.877Z,96187.48
2019-03-27T15:51:17.993Z,96187.81
2019-03-27T15:53:47.457Z,96185.19
2019-03-27T15:56:16.232Z,96187.63
2019-03-27T15:58:44.813Z,96190.55
2019-03-27T16:01:13.416Z,96195.11
2019-03-27T16:03:41.957Z,96190.83
2019-03-27T16:06:10.493Z,96190.78
2019-03-27T16:08:39.059Z,96187.77
2019-03-27T16:11:07.831Z,96191.48
2019-03-27T16:13:36.337Z,96189.70
2019-03-27T16:16:04.920Z,96189.52
2019-03-27T16:18:33.400Z,96192.80
2019-03-27T16:21:02.021Z,96203.69
2019-03-27T16:23:32.515Z,96207.39
2019-03-27T16:26:01.039Z,96200.53
2019-03-27T16:28:29.576Z,96203.02
2019-03-27T16:30:58.254Z,96207.13
2019-03-27T16:33:26.903Z,96201.08
2019-03-27T16:35:55.559Z,96206.50
2019-03-27T16:38:24.167Z,96212.37
2019-03-27T16:40:52.943Z,96214.38
2019-03-27T16:43:21.547Z,96220.66
2019-03-27T16:45:50.539Z,96224.73
2019-03-27T16:48:20.637Z,96234.75
2019-03-27T16:50:49.314Z,96229.95
2019-03-27T16:53:17.921Z,96230.26
2019-03-27T16:55:47.042Z,96234.36
2019-03-27T16:58:15.648Z,96235.42
2019-03-27T17:00:44.306Z,96233.61
2019-03-27T17:03:13.713Z,96235.53
2019-03-27T17:05:53.371Z,96239.59
2019-03-27T17:08:12.668Z,96239.41
2019-03-27T17:10:41.416Z,96240.98
2019-03-27T17:13:09.966Z,96239.11
2019-03-27T17:15:38.608Z,96246.53
2019-03-27T17:18:07.289Z,96249.66
2019-03-27T17:20:35.822Z,96255.38
2019-03-27T17:23:17.517Z,96253.86
2019-03-27T17:25:34.860Z,96249.20
2019-03-27T17:28:03.513Z,96258.27
2019-03-27T17:30:32.230Z,96268.12
2019-03-27T17:33:00.752Z,96273.89
2019-03-27T17:35:29.375Z,96276.58
2019-03-27T17:37:57.837Z,96276.06
2019-03-27T17:40:26.488Z,96276.64
2019-03-27T17:42:55.127Z,96280.94
2019-03-27T17:45:23.777Z,96285.41
2019-03-27T17:47:52.417Z,96295.77
2019-03-27T17:50:21.055Z,96288.36
2019-03-27T17:52:49.590Z,96289.42
2019-03-27T17:55:18.135Z,96290.03
2019-03-27T17:57:46.751Z,96291.91
2019-03-27T18:00:19.719Z,96292.46
2019-03-27T18:02:48.360Z,96284.64
2019-03-27T18:05:16.982Z,96293.27
2019-03-27T18:07:45.595Z,96293.20
2019-03-27T18:10:14.777Z,96300.12
2019-03-27T18:12:43.394Z,96305.11
2019-03-27T18:15:12.435Z,96303.25
2019-03-27T18:17:41.048Z,96311.42
2019-03-27T18:20:09.818Z,96317.09
2019-03-27T18:22:38.358Z,96318.61
2019-03-27T18:25:07.190Z,96321.79
2019-03-27T18:27:35.799Z,96325.10
2019-03-27T18:30:07.085Z,96326.55
2019-03-27T18:32:35.736Z,96328.97
2019-03-27T18:35:05.853Z,96340.26
2019-03-27T18:37:34.479Z,96341.42
2019-03-27T18:40:03.918Z,96340.84
2019-03-27T18:42:32.469Z,96339.75
2019-03-27T18:45:01.060Z,96344.63
2019-03-27T18:47:29.720Z,96336.96
2019-03-27T18:49:58.291Z,96345.72
2019-03-27T18:52:26.910Z,96345.21
2019-03-27T18:54:59.463Z,96345.45
2019-03-27T18:57:28.167Z,96347.80
2019-03-27T18:59:56.770Z,96347.22
2019-03-27T19:02:27.449Z,96351.34
2019-03-27T19:04:56.111Z,96354.20
2019-03-27T19:07:24.755Z,96353.62
2019-03-27T19:09:53.589Z,96359.06
2019-03-27T19:12:22.148Z,96352.66
2019-03-27T19:14:50.709Z,96351.66
2019-03-27T19:17:19.606Z,96359.56
2019-03-27T19:19:48.375Z,96363.58
2019-03-27T19:22:16.923Z,96367.18
2019-03-27T19:24:45.533Z,96368.67
2019-03-27T19:27:14.069Z,96367.67
2019-03-27T19:29:45.036Z,96365.41
2019-03-27T19:32:13.206Z,96368.56
2019-03-27T19:34:42.045Z,96369.75
2019-03-27T19:37:11.064Z,96372.09
2019-03-27T19:39:39.738Z,96370.31
2019-03-27T19:42:08.440Z,96384.09
2019-03-27T19:44:37.123Z,96381.47
2019-03-27T19:47:05.922Z,96383.58
2019-03-27T19:49:34.568Z,96383.91
2019-03-27T19:52:03.232Z,96385.58
2019-03-27T19:54:31.772Z,96391.09
2019-03-27T19:57:00.460Z,96387.65
2019-03-27T19:59:29.045Z,96392.35
2019-03-27T20:01:57.594Z,96391.42
2019-03-27T20:04:26.195Z,96394.32
2019-03-27T20:06:54.825Z,96397.25
2019-03-27T20:09:23.319Z,96400.50
2019-03-27T20:11:52.011Z,96400.23
2019-03-27T20:14:20.619Z,96402.72
2019-03-27T20:16:49.224Z,96394.68
2019-03-27T20:19:17.814Z,96395.49
2019-03-27T20:21:46.378Z,96402.23
2019-03-27T20:24:15.221Z,96396.27
2019-03-27T20:26:43.907Z,96405.09
2019-03-27T20:29:12.479Z,96405.42
2019-03-27T20:31:41.092Z,96408.34
2019-03-27T20:34:09.723Z,96412.60
2019-03-27T20:36:38.749Z,96415.12
2019-03-27T20:39:09.004Z,96413.71
2019-03-27T20:41:37.558Z,96416.11
2019-03-27T20:44:06.176Z,96414.73
2019-03-27T20:46:34.831Z,96421.03
2019-03-27T20:49:03.431Z,96415.84
2019-03-27T20:51:32.493Z,96422.42
2019-03-27T20:54:01.513Z,96422.23
2019-03-27T20:56:30.438Z,96423.48
2019-03-27T20:59:01.317Z,96430.03
2019-03-27T21:01:35.573Z,96427.39
2019-03-27T21:03:59.691Z,96432.27
2019-03-27T21:06:28.355Z,96431.22
2019-03-27T21:08:57.123Z,96433.29
2019-03-27T21:11:25.978Z,96430.37
2019-03-27T21:13:54.548Z,96430.58
2019-03-27T21:16:23.204Z,96433.02
2019-03-27T21:18:51.858Z,96436.99
2019-03-27T21:21:20.452Z,96441.50
2019-03-27T21:23:49.093Z,96444.70
2019-03-27T21:26:17.726Z,96443.73
2019-03-27T21:28:46.309Z,96451.20
2019-03-27T21:31:14.921Z,96452.78
2019-03-27T21:33:43.501Z,96454.23
2019-03-27T21:36:12.054Z,96455.30
2019-03-27T21:38:40.679Z,96458.53
2019-03-27T21:41:09.296Z,96455.89
2019-03-27T21:43:37.881Z,96458.33
2019-03-27T21:46:06.643Z,96458.16
2019-03-27T21:48:35.251Z,96455.60
2019-03-27T21:51:04.026Z,96455.84
2019-03-27T21:53:34.782Z,96460.83
2019-03-27T21:56:03.477Z,96460.61
2019-03-27T21:58:32.061Z,96462.19
2019-03-27T22:01:00.862Z,96466.28
2019-03-27T22:03:29.509Z,96464.95
2019-03-27T22:05:58.146Z,96461.17
2019-03-27T22:08:26.793Z,96465.75
2019-03-27T22:10:55.417Z,96467.56
2019-03-27T22:13:24.022Z,96473.32
2019-03-27T22:15:52.800Z,96472.38
2019-03-27T22:18:21.522Z,96472.92
2019-03-27T22:20:50.217Z,96470.94
2019-03-27T22:23:18.808Z,96470.48
2019-03-27T22:25:47.422Z,96471.93
2019-03-27T22:28:16.221Z,96474.23
2019-03-27T22:30:44.800Z,96468.58
2019-03-27T22:33:13.422Z,96465.53
2019-03-27T22:35:42.032Z,96473.31
2019-03-27T22:38:10.578Z,96472.32
2019-03-27T22:40:39.612Z,96471.38
2019-03-27T22:43:08.252Z,96473.41
2019-03-27T22:45:36.907Z,96470.50
2019-03-27T22:48:05.518Z,96469.64
2019-03-27T22:50:34.204Z,96462.73
2019-03-27T22:53:03.165Z,96465.20
2019-03-27T22:55:31.780Z,96464.71
2019-03-27T22:58:00.476Z,96467.62
2019-03-27T23:00:31.141Z,96467.62
2019-03-27T23:03:00.565Z,96469.42
2019-03-27T23:05:30.274Z,96471.94
2019-03-27T23:08:16.453Z,96472.79
2019-03-27T23:10:45.081Z,96476.02
2019-03-27T23:13:13.768Z,96479.39
2019-03-27T23:15:43.053Z,96476.56
2019-03-27T23:18:11.697Z,96477.58
2019-03-27T23:20:40.307Z,96469.95
2019-03-27T23:23:08.950Z,96474.94
2019-03-27T23:25:38.258Z,96472.33
2019-03-27T23:28:06.903Z,96476.73
2019-03-27T23:30:40.396Z,96474.00
2019-03-27T23:33:09.052Z,96474.23
2019-03-27T23:35:37.700Z,96473.24
2019-03-27T23:38:06.430Z,96470.59
2019-03-27T23:40:35.156Z,96480.07
2019-03-27T23:43:03.765Z,96484.19
2019-03-27T23:45:32.448Z,96476.80
2019-03-27T23:48:01.128Z,96473.29
2019-03-27T23:50:29.604Z,96475.71
2019-03-27T23:52:58.306Z,96474.77
2019-03-27T23:55:29.134Z,96475.94
2019-03-27T23:57:57.749Z,96483.42
